sensor_id;sensor_type;location;lat;lon;timestamp;P1;durP1;ratioP1;P2;durP2;ratioP2
47804;SDS011;33568;45.286;9.900;2023-09-08T00:02:10;13.35;;;9.13;;
47804;SDS011;33568;45.286;9.900;2023-09-08T00:04:37;10.25;;;8.05;;
47804;SDS011;33568;45.286;9.900;2023-09-08T00:07:04;11.10;;;9.38;;
47804;SDS011;33568;45.286;9.900;2023-09-08T00:09:30;12.57;;;9.25;;
47804;SDS011;33568;45.286;9.900;2023-09-08T00:11:56;18.58;;;11.75;;
47804;SDS011;33568;45.286;9.900;2023-09-08T00:14:23;17.48;;;10.63;;
47804;SDS011;33568;45.286;9.900;2023-09-08T00:16:51;15.65;;;9.60;;
47804;SDS011;33568;45.286;9.900;2023-09-08T00:19:20;12.40;;;10.95;;
47804;SDS011;33568;45.286;9.900;2023-09-08T00:21:47;17.10;;;12.73;;
47804;SDS011;33568;45.286;9.900;2023-09-08T00:24:15;11.65;;;9.32;;
47804;SDS011;33568;45.286;9.900;2023-09-08T00:26:41;10.45;;;6.68;;
47804;SDS011;33568;45.286;9.900;2023-09-08T00:29:08;13.50;;;6.18;;
47804;SDS011;33568;45.286;9.900;2023-09-08T00:31:34;13.90;;;8.95;;
47804;SDS011;33568;45.286;9.900;2023-09-08T00:34:01;9.07;;;7.45;;
47804;SDS011;33568;45.286;9.900;2023-09-08T00:36:27;12.85;;;9.35;;
47804;SDS011;33568;45.286;9.900;2023-09-08T00:38:54;13.45;;;9.50;;
47804;SDS011;33568;45.286;9.900;2023-09-08T00:41:20;12.38;;;7.13;;
47804;SDS011;33568;45.286;9.900;2023-09-08T00:43:49;9.80;;;7.90;;
47804;SDS011;33568;45.286;9.900;2023-09-08T00:46:16;10.00;;;8.13;;
47804;SDS011;33568;45.286;9.900;2023-09-08T00:48:43;11.30;;;8.95;;
47804;SDS011;33568;45.286;9.900;2023-09-08T00:51:10;10.95;;;7.20;;
47804;SDS011;33568;45.286;9.900;2023-09-08T00:53:37;13.52;;;10.18;;
47804;SDS011;33568;45.286;9.900;2023-09-08T00:56:04;9.38;;;6.30;;
47804;SDS011;33568;45.286;9.900;2023-09-08T00:58:31;11.70;;;8.45;;
47804;SDS011;33568;45.286;9.900;2023-09-08T01:00:58;9.43;;;8.35;;
47804;SDS011;33568;45.286;9.900;2023-09-08T01:03:25;9.55;;;7.82;;
47804;SDS011;33568;45.286;9.900;2023-09-08T01:05:51;8.88;;;6.57;;
47804;SDS011;33568;45.286;9.900;2023-09-08T01:08:18;10.65;;;6.88;;
47804;SDS011;33568;45.286;9.900;2023-09-08T01:10:45;8.07;;;6.57;;
47804;SDS011;33568;45.286;9.900;2023-09-08T01:13:12;13.77;;;7.57;;
47804;SDS011;33568;45.286;9.900;2023-09-08T01:15:39;13.02;;;9.55;;
47804;SDS011;33568;45.286;9.900;2023-09-08T01:18:05;14.68;;;8.15;;
47804;SDS011;33568;45.286;9.900;2023-09-08T01:20:41;12.93;;;8.40;;
47804;SDS011;33568;45.286;9.900;2023-09-08T01:26:16;11.88;;;8.52;;
47804;SDS011;33568;45.286;9.900;2023-09-08T01:28:49;14.38;;;7.70;;
47804;SDS011;33568;45.286;9.900;2023-09-08T01:31:16;10.52;;;9.38;;
47804;SDS011;33568;45.286;9.900;2023-09-08T01:33:43;8.90;;;7.05;;
47804;SDS011;33568;45.286;9.900;2023-09-08T01:36:11;14.05;;;10.90;;
47804;SDS011;33568;45.286;9.900;2023-09-08T01:38:38;15.10;;;11.15;;
47804;SDS011;33568;45.286;9.900;2023-09-08T01:41:05;10.50;;;8.20;;
47804;SDS011;33568;45.286;9.900;2023-09-08T01:43:31;15.38;;;11.68;;
47804;SDS011;33568;45.286;9.900;2023-09-08T01:45:58;14.80;;;12.48;;
47804;SDS011;33568;45.286;9.900;2023-09-08T01:48:24;11.77;;;9.35;;
47804;SDS011;33568;45.286;9.900;2023-09-08T01:50:51;14.07;;;12.18;;
47804;SDS011;33568;45.286;9.900;2023-09-08T01:53:17;12.98;;;9.93;;
47804;SDS011;33568;45.286;9.900;2023-09-08T01:55:44;9.93;;;7.30;;
47804;SDS011;33568;45.286;9.900;2023-09-08T01:58:12;8.25;;;6.43;;
47804;SDS011;33568;45.286;9.900;2023-09-08T02:00:39;8.40;;;6.60;;
47804;SDS011;33568;45.286;9.900;2023-09-08T02:03:06;10.00;;;6.28;;
47804;SDS011;33568;45.286;9.900;2023-09-08T02:05:34;8.25;;;6.55;;
47804;SDS011;33568;45.286;9.900;2023-09-08T02:08:04;9.85;;;6.50;;
47804;SDS011;33568;45.286;9.900;2023-09-08T02:10:32;8.30;;;6.45;;
47804;SDS011;33568;45.286;9.900;2023-09-08T02:12:59;8.13;;;6.15;;
47804;SDS011;33568;45.286;9.900;2023-09-08T02:15:25;13.20;;;8.38;;
47804;SDS011;33568;45.286;9.900;2023-09-08T02:17:52;8.55;;;7.35;;
47804;SDS011;33568;45.286;9.900;2023-09-08T02:20:23;7.80;;;6.55;;
47804;SDS011;33568;45.286;9.900;2023-09-08T02:22:53;12.73;;;7.03;;
47804;SDS011;33568;45.286;9.900;2023-09-08T02:25:20;9.57;;;7.53;;
47804;SDS011;33568;45.286;9.900;2023-09-08T02:27:49;9.98;;;6.35;;
47804;SDS011;33568;45.286;9.900;2023-09-08T02:30:15;6.65;;;5.95;;
47804;SDS011;33568;45.286;9.900;2023-09-08T02:32:42;10.50;;;6.78;;
47804;SDS011;33568;45.286;9.900;2023-09-08T02:35:10;11.02;;;7.68;;
47804;SDS011;33568;45.286;9.900;2023-09-08T02:37:37;8.38;;;6.57;;
47804;SDS011;33568;45.286;9.900;2023-09-08T02:40:04;10.23;;;6.47;;
47804;SDS011;33568;45.286;9.900;2023-09-08T02:42:33;9.15;;;6.85;;
47804;SDS011;33568;45.286;9.900;2023-09-08T02:45:00;8.23;;;6.47;;
47804;SDS011;33568;45.286;9.900;2023-09-08T02:47:26;7.45;;;6.65;;
47804;SDS011;33568;45.286;9.900;2023-09-08T02:49:53;10.75;;;7.00;;
47804;SDS011;33568;45.286;9.900;2023-09-08T02:52:20;7.93;;;7.13;;
47804;SDS011;33568;45.286;9.900;2023-09-08T02:54:46;8.13;;;6.97;;
47804;SDS011;33568;45.286;9.900;2023-09-08T02:57:13;9.18;;;6.90;;
47804;SDS011;33568;45.286;9.900;2023-09-08T02:59:40;8.50;;;6.22;;
47804;SDS011;33568;45.286;9.900;2023-09-08T03:02:08;13.43;;;8.77;;
47804;SDS011;33568;45.286;9.900;2023-09-08T03:04:35;8.85;;;6.57;;
47804;SDS011;33568;45.286;9.900;2023-09-08T03:07:02;10.90;;;7.40;;
47804;SDS011;33568;45.286;9.900;2023-09-08T03:09:28;10.80;;;7.00;;
47804;SDS011;33568;45.286;9.900;2023-09-08T03:11:55;9.23;;;7.53;;
47804;SDS011;33568;45.286;9.900;2023-09-08T03:14:22;12.52;;;8.40;;
47804;SDS011;33568;45.286;9.900;2023-09-08T03:16:48;14.23;;;10.85;;
47804;SDS011;33568;45.286;9.900;2023-09-08T03:19:15;9.20;;;8.35;;
47804;SDS011;33568;45.286;9.900;2023-09-08T03:21:41;10.57;;;8.02;;
47804;SDS011;33568;45.286;9.900;2023-09-08T03:24:08;9.32;;;7.18;;
47804;SDS011;33568;45.286;9.900;2023-09-08T03:26:34;9.52;;;8.60;;
47804;SDS011;33568;45.286;9.900;2023-09-08T03:29:01;10.65;;;9.40;;
47804;SDS011;33568;45.286;9.900;2023-09-08T03:31:27;11.32;;;7.88;;
47804;SDS011;33568;45.286;9.900;2023-09-08T03:33:54;11.23;;;8.07;;
47804;SDS011;33568;45.286;9.900;2023-09-08T03:36:20;7.90;;;6.82;;
47804;SDS011;33568;45.286;9.900;2023-09-08T03:38:47;9.55;;;7.78;;
47804;SDS011;33568;45.286;9.900;2023-09-08T03:41:14;9.98;;;8.50;;
47804;SDS011;33568;45.286;9.900;2023-09-08T03:43:40;7.78;;;6.53;;
47804;SDS011;33568;45.286;9.900;2023-09-08T03:46:07;9.07;;;8.18;;
47804;SDS011;33568;45.286;9.900;2023-09-08T03:48:34;9.93;;;7.18;;
47804;SDS011;33568;45.286;9.900;2023-09-08T03:51:00;10.25;;;7.82;;
47804;SDS011;33568;45.286;9.900;2023-09-08T03:53:27;9.10;;;8.20;;
47804;SDS011;33568;45.286;9.900;2023-09-08T03:55:54;7.97;;;7.18;;
47804;SDS011;33568;45.286;9.900;2023-09-08T03:58:20;8.13;;;7.32;;
47804;SDS011;33568;45.286;9.900;2023-09-08T04:00:48;8.45;;;7.20;;
47804;SDS011;33568;45.286;9.900;2023-09-08T04:03:15;12.85;;;8.70;;
47804;SDS011;33568;45.286;9.900;2023-09-08T04:05:41;8.40;;;7.60;;
47804;SDS011;33568;45.286;9.900;2023-09-08T04:08:08;10.32;;;7.82;;
47804;SDS011;33568;45.286;9.900;2023-09-08T04:10:34;8.23;;;7.53;;
47804;SDS011;33568;45.286;9.900;2023-09-08T04:13:01;15.38;;;13.00;;
47804;SDS011;33568;45.286;9.900;2023-09-08T04:15:28;16.23;;;9.13;;
47804;SDS011;33568;45.286;9.900;2023-09-08T04:17:54;10.75;;;8.40;;
47804;SDS011;33568;45.286;9.900;2023-09-08T04:20:23;14.57;;;9.38;;
47804;SDS011;33568;45.286;9.900;2023-09-08T04:22:49;19.45;;;11.15;;
47804;SDS011;33568;45.286;9.900;2023-09-08T04:25:16;10.85;;;8.38;;
47804;SDS011;33568;45.286;9.900;2023-09-08T04:27:43;8.32;;;7.25;;
47804;SDS011;33568;45.286;9.900;2023-09-08T04:30:11;9.40;;;7.85;;
47804;SDS011;33568;45.286;9.900;2023-09-08T04:32:38;15.82;;;7.80;;
47804;SDS011;33568;45.286;9.900;2023-09-08T04:35:05;9.88;;;7.53;;
47804;SDS011;33568;45.286;9.900;2023-09-08T04:37:31;14.23;;;9.75;;
47804;SDS011;33568;45.286;9.900;2023-09-08T04:39:59;12.25;;;10.32;;
47804;SDS011;33568;45.286;9.900;2023-09-08T04:42:26;9.60;;;8.60;;
47804;SDS011;33568;45.286;9.900;2023-09-08T04:44:53;19.13;;;14.23;;
47804;SDS011;33568;45.286;9.900;2023-09-08T04:47:19;19.73;;;16.15;;
47804;SDS011;33568;45.286;9.900;2023-09-08T04:49:46;18.95;;;15.40;;
47804;SDS011;33568;45.286;9.900;2023-09-08T04:52:12;25.90;;;16.73;;
47804;SDS011;33568;45.286;9.900;2023-09-08T04:54:40;26.83;;;15.75;;
47804;SDS011;33568;45.286;9.900;2023-09-08T04:57:07;23.05;;;16.08;;
47804;SDS011;33568;45.286;9.900;2023-09-08T04:59:33;25.60;;;16.90;;
47804;SDS011;33568;45.286;9.900;2023-09-08T05:02:04;25.58;;;17.05;;
47804;SDS011;33568;45.286;9.900;2023-09-08T05:04:30;19.33;;;16.98;;
47804;SDS011;33568;45.286;9.900;2023-09-08T05:06:57;23.85;;;16.65;;
47804;SDS011;33568;45.286;9.900;2023-09-08T05:09:24;22.98;;;17.13;;
47804;SDS011;33568;45.286;9.900;2023-09-08T05:11:51;24.17;;;15.25;;
47804;SDS011;33568;45.286;9.900;2023-09-08T05:14:18;23.42;;;15.35;;
47804;SDS011;33568;45.286;9.900;2023-09-08T05:16:45;15.45;;;13.23;;
47804;SDS011;33568;45.286;9.900;2023-09-08T05:19:17;22.83;;;13.15;;
47804;SDS011;33568;45.286;9.900;2023-09-08T05:21:44;15.63;;;12.50;;
47804;SDS011;33568;45.286;9.900;2023-09-08T05:24:10;18.77;;;11.93;;
47804;SDS011;33568;45.286;9.900;2023-09-08T05:26:37;17.90;;;12.48;;
47804;SDS011;33568;45.286;9.900;2023-09-08T05:29:07;19.92;;;11.80;;
47804;SDS011;33568;45.286;9.900;2023-09-08T05:31:33;18.85;;;11.07;;
47804;SDS011;33568;45.286;9.900;2023-09-08T05:34:00;17.05;;;13.15;;
47804;SDS011;33568;45.286;9.900;2023-09-08T05:36:27;26.55;;;15.07;;
47804;SDS011;33568;45.286;9.900;2023-09-08T05:38:56;23.67;;;12.82;;
47804;SDS011;33568;45.286;9.900;2023-09-08T05:41:23;23.20;;;13.73;;
47804;SDS011;33568;45.286;9.900;2023-09-08T05:43:50;28.67;;;12.93;;
47804;SDS011;33568;45.286;9.900;2023-09-08T05:46:17;20.92;;;13.52;;
47804;SDS011;33568;45.286;9.900;2023-09-08T05:48:44;20.98;;;12.65;;
47804;SDS011;33568;45.286;9.900;2023-09-08T05:51:11;13.98;;;11.18;;
47804;SDS011;33568;45.286;9.900;2023-09-08T05:53:38;17.85;;;12.85;;
47804;SDS011;33568;45.286;9.900;2023-09-08T05:56:06;33.75;;;17.48;;
47804;SDS011;33568;45.286;9.900;2023-09-08T05:58:34;29.90;;;17.40;;
47804;SDS011;33568;45.286;9.900;2023-09-08T06:01:01;24.80;;;13.63;;
47804;SDS011;33568;45.286;9.900;2023-09-08T06:03:30;32.47;;;15.35;;
47804;SDS011;33568;45.286;9.900;2023-09-08T06:05:57;48.28;;;20.40;;
47804;SDS011;33568;45.286;9.900;2023-09-08T06:08:24;25.13;;;16.35;;
47804;SDS011;33568;45.286;9.900;2023-09-08T06:10:51;36.45;;;20.17;;
47804;SDS011;33568;45.286;9.900;2023-09-08T06:13:18;21.05;;;15.93;;
47804;SDS011;33568;45.286;9.900;2023-09-08T06:15:45;25.70;;;20.08;;
47804;SDS011;33568;45.286;9.900;2023-09-08T06:18:11;36.80;;;20.85;;
47804;SDS011;33568;45.286;9.900;2023-09-08T06:20:47;32.33;;;18.67;;
47804;SDS011;33568;45.286;9.900;2023-09-08T06:23:15;26.15;;;15.25;;
47804;SDS011;33568;45.286;9.900;2023-09-08T06:25:41;22.35;;;16.35;;
47804;SDS011;33568;45.286;9.900;2023-09-08T06:28:09;21.65;;;17.77;;
47804;SDS011;33568;45.286;9.900;2023-09-08T06:30:35;21.73;;;18.85;;
47804;SDS011;33568;45.286;9.900;2023-09-08T06:33:02;29.95;;;18.42;;
47804;SDS011;33568;45.286;9.900;2023-09-08T06:35:29;19.10;;;14.95;;
47804;SDS011;33568;45.286;9.900;2023-09-08T06:37:57;21.80;;;16.42;;
47804;SDS011;33568;45.286;9.900;2023-09-08T06:40:24;27.17;;;20.90;;
47804;SDS011;33568;45.286;9.900;2023-09-08T06:42:51;19.83;;;16.25;;
47804;SDS011;33568;45.286;9.900;2023-09-08T06:45:37;17.27;;;15.23;;
47804;SDS011;33568;45.286;9.900;2023-09-08T06:48:05;19.85;;;16.20;;
47804;SDS011;33568;45.286;9.900;2023-09-08T06:50:32;22.50;;;17.80;;
47804;SDS011;33568;45.286;9.900;2023-09-08T06:52:58;17.83;;;14.65;;
47804;SDS011;33568;45.286;9.900;2023-09-08T06:55:26;20.30;;;18.25;;
47804;SDS011;33568;45.286;9.900;2023-09-08T06:57:53;19.60;;;15.20;;
47804;SDS011;33568;45.286;9.900;2023-09-08T07:00:19;16.33;;;14.55;;
47804;SDS011;33568;45.286;9.900;2023-09-08T07:02:47;29.23;;;18.42;;
47804;SDS011;33568;45.286;9.900;2023-09-08T07:05:15;21.42;;;16.20;;
47804;SDS011;33568;45.286;9.900;2023-09-08T07:07:42;24.02;;;17.23;;
47804;SDS011;33568;45.286;9.900;2023-09-08T07:10:09;19.35;;;17.40;;
47804;SDS011;33568;45.286;9.900;2023-09-08T07:12:37;19.13;;;13.23;;
47804;SDS011;33568;45.286;9.900;2023-09-08T07:15:03;19.08;;;14.25;;
47804;SDS011;33568;45.286;9.900;2023-09-08T07:17:30;16.08;;;14.30;;
47804;SDS011;33568;45.286;9.900;2023-09-08T07:19:57;17.38;;;13.68;;
47804;SDS011;33568;45.286;9.900;2023-09-08T07:22:23;21.15;;;15.57;;
47804;SDS011;33568;45.286;9.900;2023-09-08T07:24:50;19.50;;;16.20;;
47804;SDS011;33568;45.286;9.900;2023-09-08T07:27:17;18.48;;;13.73;;
47804;SDS011;33568;45.286;9.900;2023-09-08T07:29:45;17.27;;;13.50;;
47804;SDS011;33568;45.286;9.900;2023-09-08T07:32:14;19.77;;;12.95;;
47804;SDS011;33568;45.286;9.900;2023-09-08T07:34:40;13.85;;;12.07;;
47804;SDS011;33568;45.286;9.900;2023-09-08T07:37:07;16.48;;;11.18;;
47804;SDS011;33568;45.286;9.900;2023-09-08T07:39:34;11.35;;;8.82;;
47804;SDS011;33568;45.286;9.900;2023-09-08T07:42:02;10.07;;;9.10;;
47804;SDS011;33568;45.286;9.900;2023-09-08T07:44:29;14.98;;;11.23;;
47804;SDS011;33568;45.286;9.900;2023-09-08T07:46:56;14.50;;;10.70;;
47804;SDS011;33568;45.286;9.900;2023-09-08T07:49:23;12.27;;;10.15;;
47804;SDS011;33568;45.286;9.900;2023-09-08T07:51:49;18.50;;;11.10;;
47804;SDS011;33568;45.286;9.900;2023-09-08T07:54:16;12.82;;;10.90;;
47804;SDS011;33568;45.286;9.900;2023-09-08T07:56:42;13.23;;;9.63;;
47804;SDS011;33568;45.286;9.900;2023-09-08T07:59:09;19.40;;;8.95;;
47804;SDS011;33568;45.286;9.900;2023-09-08T08:01:35;15.18;;;7.82;;
47804;SDS011;33568;45.286;9.900;2023-09-08T08:04:02;16.27;;;9.52;;
47804;SDS011;33568;45.286;9.900;2023-09-08T08:06:31;14.25;;;10.45;;
47804;SDS011;33568;45.286;9.900;2023-09-08T08:08:58;9.75;;;8.50;;
47804;SDS011;33568;45.286;9.900;2023-09-08T08:11:24;11.93;;;10.73;;
47804;SDS011;33568;45.286;9.900;2023-09-08T08:13:51;14.82;;;9.13;;
47804;SDS011;33568;45.286;9.900;2023-09-08T08:16:18;12.15;;;9.80;;
47804;SDS011;33568;45.286;9.900;2023-09-08T08:18:46;13.43;;;9.25;;
47804;SDS011;33568;45.286;9.900;2023-09-08T08:21:12;13.85;;;8.77;;
47804;SDS011;33568;45.286;9.900;2023-09-08T08:23:39;11.45;;;9.10;;
47804;SDS011;33568;45.286;9.900;2023-09-08T08:26:05;15.38;;;9.50;;
47804;SDS011;33568;45.286;9.900;2023-09-08T08:28:32;14.73;;;9.40;;
47804;SDS011;33568;45.286;9.900;2023-09-08T08:30:59;12.20;;;9.75;;
47804;SDS011;33568;45.286;9.900;2023-09-08T08:33:25;11.73;;;8.65;;
47804;SDS011;33568;45.286;9.900;2023-09-08T08:35:52;15.25;;;8.75;;
47804;SDS011;33568;45.286;9.900;2023-09-08T08:38:19;17.38;;;9.75;;
47804;SDS011;33568;45.286;9.900;2023-09-08T08:40:46;14.18;;;10.48;;
47804;SDS011;33568;45.286;9.900;2023-09-08T08:43:12;14.63;;;9.35;;
47804;SDS011;33568;45.286;9.900;2023-09-08T08:45:41;9.90;;;8.80;;
47804;SDS011;33568;45.286;9.900;2023-09-08T08:48:09;9.07;;;7.07;;
47804;SDS011;33568;45.286;9.900;2023-09-08T08:50:39;9.90;;;7.40;;
47804;SDS011;33568;45.286;9.900;2023-09-08T08:53:08;11.85;;;7.40;;
47804;SDS011;33568;45.286;9.900;2023-09-08T08:55:36;13.40;;;8.30;;
47804;SDS011;33568;45.286;9.900;2023-09-08T08:58:03;13.13;;;7.90;;
47804;SDS011;33568;45.286;9.900;2023-09-08T09:00:30;11.18;;;8.15;;
47804;SDS011;33568;45.286;9.900;2023-09-08T09:03:01;15.75;;;9.15;;
47804;SDS011;33568;45.286;9.900;2023-09-08T09:05:29;12.88;;;8.43;;
47804;SDS011;33568;45.286;9.900;2023-09-08T09:07:57;16.88;;;8.15;;
47804;SDS011;33568;45.286;9.900;2023-09-08T09:10:24;13.43;;;8.32;;
47804;SDS011;33568;45.286;9.900;2023-09-08T09:12:51;9.02;;;8.10;;
47804;SDS011;33568;45.286;9.900;2023-09-08T09:15:27;10.40;;;7.75;;
47804;SDS011;33568;45.286;9.900;2023-09-08T09:18:04;12.45;;;8.45;;
47804;SDS011;33568;45.286;9.900;2023-09-08T09:20:32;11.80;;;8.40;;
47804;SDS011;33568;45.286;9.900;2023-09-08T09:22:58;17.88;;;7.05;;
47804;SDS011;33568;45.286;9.900;2023-09-08T09:25:26;13.40;;;6.80;;
47804;SDS011;33568;45.286;9.900;2023-09-08T09:28:01;13.68;;;6.35;;
47804;SDS011;33568;45.286;9.900;2023-09-08T09:30:45;12.38;;;6.43;;
47804;SDS011;33568;45.286;9.900;2023-09-08T09:33:14;17.38;;;5.45;;
47804;SDS011;33568;45.286;9.900;2023-09-08T09:38:35;8.68;;;5.50;;
47804;SDS011;33568;45.286;9.900;2023-09-08T09:41:01;11.95;;;5.10;;
47804;SDS011;33568;45.286;9.900;2023-09-08T09:43:28;15.40;;;5.13;;
47804;SDS011;33568;45.286;9.900;2023-09-08T09:45:55;9.25;;;5.00;;
47804;SDS011;33568;45.286;9.900;2023-09-08T09:48:22;7.32;;;4.93;;
47804;SDS011;33568;45.286;9.900;2023-09-08T09:50:49;11.95;;;5.22;;
47804;SDS011;33568;45.286;9.900;2023-09-08T09:53:16;9.90;;;5.63;;
47804;SDS011;33568;45.286;9.900;2023-09-08T09:55:44;8.38;;;5.18;;
47804;SDS011;33568;45.286;9.900;2023-09-08T09:58:11;10.85;;;5.93;;
47804;SDS011;33568;45.286;9.900;2023-09-08T10:00:38;11.65;;;6.75;;
47804;SDS011;33568;45.286;9.900;2023-09-08T10:03:13;9.40;;;5.82;;
47804;SDS011;33568;45.286;9.900;2023-09-08T10:05:40;13.65;;;5.90;;
47804;SDS011;33568;45.286;9.900;2023-09-08T10:08:06;12.85;;;5.85;;
47804;SDS011;33568;45.286;9.900;2023-09-08T10:10:33;5.25;;;4.55;;
47804;SDS011;33568;45.286;9.900;2023-09-08T10:13:02;15.15;;;4.68;;
47804;SDS011;33568;45.286;9.900;2023-09-08T10:15:33;13.38;;;4.90;;
47804;SDS011;33568;45.286;9.900;2023-09-08T10:18:04;16.25;;;4.57;;
47804;SDS011;33568;45.286;9.900;2023-09-08T10:20:31;7.60;;;5.40;;
47804;SDS011;33568;45.286;9.900;2023-09-08T10:26:19;8.30;;;4.63;;
47804;SDS011;33568;45.286;9.900;2023-09-08T10:28:50;8.68;;;5.00;;
47804;SDS011;33568;45.286;9.900;2023-09-08T10:31:22;11.25;;;4.88;;
47804;SDS011;33568;45.286;9.900;2023-09-08T10:33:54;6.57;;;4.35;;
47804;SDS011;33568;45.286;9.900;2023-09-08T10:36:23;9.38;;;5.05;;
47804;SDS011;33568;45.286;9.900;2023-09-08T10:38:50;7.82;;;5.00;;
47804;SDS011;33568;45.286;9.900;2023-09-08T10:43:56;5.15;;;4.13;;
47804;SDS011;33568;45.286;9.900;2023-09-08T10:46:27;7.90;;;4.57;;
47804;SDS011;33568;45.286;9.900;2023-09-08T10:48:55;6.53;;;4.00;;
47804;SDS011;33568;45.286;9.900;2023-09-08T10:51:29;4.88;;;4.30;;
47804;SDS011;33568;45.286;9.900;2023-09-08T10:53:55;11.48;;;4.78;;
47804;SDS011;33568;45.286;9.900;2023-09-08T10:56:26;6.18;;;4.40;;
47804;SDS011;33568;45.286;9.900;2023-09-08T10:59:15;8.38;;;5.28;;
47804;SDS011;33568;45.286;9.900;2023-09-08T11:01:41;9.07;;;4.93;;
47804;SDS011;33568;45.286;9.900;2023-09-08T11:04:08;13.25;;;5.13;;
47804;SDS011;33568;45.286;9.900;2023-09-08T11:06:38;7.38;;;4.78;;
47804;SDS011;33568;45.286;9.900;2023-09-08T11:09:08;7.20;;;4.57;;
47804;SDS011;33568;45.286;9.900;2023-09-08T11:11:35;13.10;;;4.80;;
47804;SDS011;33568;45.286;9.900;2023-09-08T11:14:02;8.98;;;4.90;;
47804;SDS011;33568;45.286;9.900;2023-09-08T11:16:30;8.38;;;4.70;;
47804;SDS011;33568;45.286;9.900;2023-09-08T11:34:16;6.07;;;4.60;;
47804;SDS011;33568;45.286;9.900;2023-09-08T11:36:43;9.90;;;4.93;;
47804;SDS011;33568;45.286;9.900;2023-09-08T11:39:09;14.93;;;5.20;;
47804;SDS011;33568;45.286;9.900;2023-09-08T11:41:36;12.18;;;4.80;;
47804;SDS011;33568;45.286;9.900;2023-09-08T11:44:02;7.47;;;4.63;;
47804;SDS011;33568;45.286;9.900;2023-09-08T11:46:30;8.02;;;5.32;;
47804;SDS011;33568;45.286;9.900;2023-09-08T11:48:56;13.60;;;5.07;;
47804;SDS011;33568;45.286;9.900;2023-09-08T11:51:25;7.47;;;5.47;;
47804;SDS011;33568;45.286;9.900;2023-09-08T11:53:52;8.52;;;5.38;;
47804;SDS011;33568;45.286;9.900;2023-09-08T11:56:20;7.65;;;5.25;;
47804;SDS011;33568;45.286;9.900;2023-09-08T11:58:47;6.03;;;5.40;;
47804;SDS011;33568;45.286;9.900;2023-09-08T12:01:14;9.70;;;5.05;;
47804;SDS011;33568;45.286;9.900;2023-09-08T12:03:53;10.18;;;5.55;;
47804;SDS011;33568;45.286;9.900;2023-09-08T12:06:26;9.75;;;5.60;;
47804;SDS011;33568;45.286;9.900;2023-09-08T12:08:55;11.88;;;5.32;;
47804;SDS011;33568;45.286;9.900;2023-09-08T12:11:22;10.75;;;5.45;;
47804;SDS011;33568;45.286;9.900;2023-09-08T12:13:49;11.35;;;5.43;;
47804;SDS011;33568;45.286;9.900;2023-09-08T12:16:19;10.35;;;4.70;;
47804;SDS011;33568;45.286;9.900;2023-09-08T12:18:48;12.57;;;6.20;;
47804;SDS011;33568;45.286;9.900;2023-09-08T12:21:15;5.88;;;4.63;;
47804;SDS011;33568;45.286;9.900;2023-09-08T12:44:50;12.68;;;4.80;;
47804;SDS011;33568;45.286;9.900;2023-09-08T12:47:17;9.07;;;4.32;;
47804;SDS011;33568;45.286;9.900;2023-09-08T12:49:43;14.55;;;4.80;;
47804;SDS011;33568;45.286;9.900;2023-09-08T12:52:09;8.05;;;5.05;;
47804;SDS011;33568;45.286;9.900;2023-09-08T12:54:36;9.98;;;4.70;;
47804;SDS011;33568;45.286;9.900;2023-09-08T12:57:02;10.02;;;4.88;;
47804;SDS011;33568;45.286;9.900;2023-09-08T12:59:29;7.50;;;4.35;;
47804;SDS011;33568;45.286;9.900;2023-09-08T13:01:55;6.32;;;4.65;;
47804;SDS011;33568;45.286;9.900;2023-09-08T13:04:23;12.02;;;5.60;;
47804;SDS011;33568;45.286;9.900;2023-09-08T13:06:50;14.43;;;5.28;;
47804;SDS011;33568;45.286;9.900;2023-09-08T13:09:17;8.32;;;4.70;;
47804;SDS011;33568;45.286;9.900;2023-09-08T13:11:43;6.32;;;4.22;;
47804;SDS011;33568;45.286;9.900;2023-09-08T13:14:09;8.60;;;4.65;;
47804;SDS011;33568;45.286;9.900;2023-09-08T13:16:36;5.65;;;4.80;;
47804;SDS011;33568;45.286;9.900;2023-09-08T13:19:02;7.38;;;4.30;;
47804;SDS011;33568;45.286;9.900;2023-09-08T13:21:29;11.90;;;4.35;;
47804;SDS011;33568;45.286;9.900;2023-09-08T13:23:56;7.53;;;3.88;;
47804;SDS011;33568;45.286;9.900;2023-09-08T13:26:23;7.82;;;4.10;;
47804;SDS011;33568;45.286;9.900;2023-09-08T13:28:49;20.20;;;4.88;;
47804;SDS011;33568;45.286;9.900;2023-09-08T13:31:15;6.82;;;4.60;;
47804;SDS011;33568;45.286;9.900;2023-09-08T13:33:42;7.45;;;4.88;;
47804;SDS011;33568;45.286;9.900;2023-09-08T13:36:08;7.10;;;4.63;;
47804;SDS011;33568;45.286;9.900;2023-09-08T13:38:35;11.05;;;4.30;;
47804;SDS011;33568;45.286;9.900;2023-09-08T13:41:01;5.88;;;4.53;;
47804;SDS011;33568;45.286;9.900;2023-09-08T13:43:28;7.10;;;4.43;;
47804;SDS011;33568;45.286;9.900;2023-09-08T13:45:54;10.73;;;4.65;;
47804;SDS011;33568;45.286;9.900;2023-09-08T13:48:21;12.05;;;5.68;;
47804;SDS011;33568;45.286;9.900;2023-09-08T13:50:47;6.95;;;4.50;;
47804;SDS011;33568;45.286;9.900;2023-09-08T13:53:14;6.38;;;4.43;;
47804;SDS011;33568;45.286;9.900;2023-09-08T13:55:40;9.52;;;5.10;;
47804;SDS011;33568;45.286;9.900;2023-09-08T13:58:07;9.38;;;4.38;;
47804;SDS011;33568;45.286;9.900;2023-09-08T14:00:34;5.10;;;4.15;;
47804;SDS011;33568;45.286;9.900;2023-09-08T14:03:02;8.02;;;4.30;;
47804;SDS011;33568;45.286;9.900;2023-09-08T14:05:29;7.88;;;4.38;;
47804;SDS011;33568;45.286;9.900;2023-09-08T14:07:55;8.30;;;4.82;;
47804;SDS011;33568;45.286;9.900;2023-09-08T14:10:22;5.43;;;4.30;;
47804;SDS011;33568;45.286;9.900;2023-09-08T14:12:49;7.13;;;4.38;;
47804;SDS011;33568;45.286;9.900;2023-09-08T14:15:15;10.88;;;5.20;;
47804;SDS011;33568;45.286;9.900;2023-09-08T14:17:42;11.65;;;4.25;;
47804;SDS011;33568;45.286;9.900;2023-09-08T14:20:08;9.25;;;4.20;;
47804;SDS011;33568;45.286;9.900;2023-09-08T14:22:35;16.70;;;4.20;;
47804;SDS011;33568;45.286;9.900;2023-09-08T14:25:02;5.40;;;4.20;;
47804;SDS011;33568;45.286;9.900;2023-09-08T14:27:29;8.13;;;3.88;;
47804;SDS011;33568;45.286;9.900;2023-09-08T14:29:55;11.23;;;4.22;;
47804;SDS011;33568;45.286;9.900;2023-09-08T14:32:22;7.03;;;4.30;;
47804;SDS011;33568;45.286;9.900;2023-09-08T14:34:48;7.22;;;4.70;;
47804;SDS011;33568;45.286;9.900;2023-09-08T14:37:15;10.38;;;4.65;;
47804;SDS011;33568;45.286;9.900;2023-09-08T14:39:41;10.88;;;4.82;;
47804;SDS011;33568;45.286;9.900;2023-09-08T14:42:08;7.50;;;4.60;;
47804;SDS011;33568;45.286;9.900;2023-09-08T14:44:35;5.68;;;4.10;;
47804;SDS011;33568;45.286;9.900;2023-09-08T14:47:01;10.95;;;4.20;;
47804;SDS011;33568;45.286;9.900;2023-09-08T14:49:28;7.63;;;4.50;;
47804;SDS011;33568;45.286;9.900;2023-09-08T14:51:55;10.45;;;5.00;;
47804;SDS011;33568;45.286;9.900;2023-09-08T14:54:21;5.82;;;4.20;;
47804;SDS011;33568;45.286;9.900;2023-09-08T14:56:47;5.85;;;5.20;;
47804;SDS011;33568;45.286;9.900;2023-09-08T14:59:14;10.27;;;5.03;;
47804;SDS011;33568;45.286;9.900;2023-09-08T15:01:40;8.10;;;4.35;;
47804;SDS011;33568;45.286;9.900;2023-09-08T15:04:08;7.38;;;4.20;;
47804;SDS011;33568;45.286;9.900;2023-09-08T15:06:35;13.50;;;4.47;;
47804;SDS011;33568;45.286;9.900;2023-09-08T15:09:01;14.60;;;5.47;;
47804;SDS011;33568;45.286;9.900;2023-09-08T15:11:28;8.57;;;5.10;;
47804;SDS011;33568;45.286;9.900;2023-09-08T15:13:54;14.68;;;5.13;;
47804;SDS011;33568;45.286;9.900;2023-09-08T15:16:21;19.60;;;5.60;;
47804;SDS011;33568;45.286;9.900;2023-09-08T15:18:47;8.70;;;4.65;;
47804;SDS011;33568;45.286;9.900;2023-09-08T15:21:15;10.60;;;4.53;;
47804;SDS011;33568;45.286;9.900;2023-09-08T15:23:41;7.65;;;5.60;;
47804;SDS011;33568;45.286;9.900;2023-09-08T15:26:08;9.38;;;5.28;;